Time;durP1;ratioP1;P1;durP2;ratioP2;P2;SDS_P1;SDS_P2;PMS_P1;PMS_P2;Temp;Humidity;BMP_temperature;BMP_pressure;BME280_temperature;BME280_humidity;BME280_pressure;Samples;Min_cycle;Max_cycle;Signal;HPM_P1;HPM_P2
2023/06/29 00:01:07;;;;;;;3.65;1.45;;;;;;;15.34;100.00;100832.75;5046321;28;20064;-67
2023/06/29 00:03:34;;;;;;;5.07;1.40;;;;;;;15.31;100.00;100846.09;5038917;28;20047;-67
2023/06/29 00:06:01;;;;;;;4.65;1.52;;;;;;;15.30;100.00;100841.78;5044998;28;20453;-67
2023/06/29 00:08:35;;;;;;;2.15;1.00;;;;;;;15.35;100.00;100846.78;5051466;28;20487;-67
2023/06/29 00:11:07;;;;;;;3.30;1.20;;;;;;;15.34;100.00;100837.19;5033731;28;20084;-67
2023/06/29 00:13:34;;;;;;;3.88;1.20;;;;;;;15.35;100.00;100838.88;5029474;28;20046;-67
2023/06/29 00:16:01;;;;;;;3.75;1.17;;;;;;;15.19;100.00;100818.63;5031878;28;20053;-67
2023/06/29 00:18:28;;;;;;;4.43;1.13;;;;;;;15.16;100.00;100834.63;5034259;28;20045;-66
2023/06/29 00:20:56;;;;;;;2.78;1.10;;;;;;;15.08;100.00;100828.91;5038429;28;20140;-66
2023/06/29 00:23:24;;;;;;;4.25;1.30;;;;;;;14.97;100.00;100821.59;5042302;28;20379;-66
2023/06/29 00:25:52;;;;;;;5.00;1.20;;;;;;;14.91;100.00;100816.66;5030710;28;20053;-66
2023/06/29 00:28:19;;;;;;;3.15;1.05;;;;;;;14.93;100.00;100830.59;5032055;28;20056;-66
2023/06/29 00:30:46;;;;;;;2.63;1.10;;;;;;;14.95;100.00;100820.00;5033516;28;20136;-67
2023/06/29 00:33:12;;;;;;;3.10;1.20;;;;;;;14.86;100.00;100825.75;5038840;28;20085;-67
2023/06/29 00:35:39;;;;;;;2.60;1.15;;;;;;;14.74;100.00;100822.00;5021192;28;20052;-67
2023/06/29 00:38:06;;;;;;;2.17;1.00;;;;;;;14.74;100.00;100830.75;5049181;28;20517;-67
2023/06/29 00:40:33;;;;;;;2.65;1.20;;;;;;;14.78;100.00;100820.88;5037492;28;20143;-67
2023/06/29 00:43:00;;;;;;;3.38;1.20;;;;;;;14.75;100.00;100815.78;5029422;28;20404;-67
2023/06/29 00:45:27;;;;;;;3.60;1.00;;;;;;;14.78;100.00;100829.66;5027496;28;20081;-67
2023/06/29 00:47:53;;;;;;;3.25;1.17;;;;;;;14.62;100.00;100828.75;5026194;28;20046;-67
2023/06/29 00:50:21;;;;;;;1.80;1.00;;;;;;;14.41;100.00;100830.69;5037901;28;20060;-67
2023/06/29 00:52:48;;;;;;;3.83;1.27;;;;;;;14.41;100.00;100835.97;5038408;28;20068;-67
2023/06/29 00:55:15;;;;;;;7.20;1.92;;;;;;;14.35;100.00;100828.41;5035979;28;20154;-67
2023/06/29 00:57:41;;;;;;;3.85;1.10;;;;;;;14.46;100.00;100833.09;5037781;28;20085;-67
2023/06/29 01:00:10;;;;;;;3.72;1.33;;;;;;;14.43;100.00;100832.34;5035748;28;20049;-67
2023/06/29 01:02:41;;;;;;;3.60;1.33;;;;;;;14.45;100.00;100832.25;5045052;28;20057;-67
2023/06/29 01:05:09;;;;;;;3.42;1.25;;;;;;;14.42;100.00;100835.91;5056910;28;20044;-67
2023/06/29 01:07:49;;;;;;;2.80;1.00;;;;;;;14.52;100.00;100831.00;5051404;28;20052;-67
2023/06/29 01:10:23;;;;;;;2.63;1.00;;;;;;;14.58;100.00;100835.97;5037093;28;20132;-67
2023/06/29 01:12:51;;;;;;;3.42;1.38;;;;;;;14.54;100.00;100834.41;5035528;28;20525;-67
2023/06/29 01:15:19;;;;;;;1.80;0.98;;;;;;;14.50;100.00;100834.63;5036097;28;20076;-66
2023/06/29 01:17:50;;;;;;;3.55;1.20;;;;;;;14.45;100.00;100832.25;5049990;28;20055;-66
2023/06/29 01:20:18;;;;;;;3.47;1.42;;;;;;;14.48;100.00;100832.09;5033308;28;20136;-67
2023/06/29 01:23:11;;;;;;;3.83;1.20;;;;;;;14.36;100.00;100844.13;5031636;28;20498;-67
2023/06/29 01:25:38;;;;;;;5.40;1.83;;;;;;;14.28;100.00;100840.19;5029883;28;20060;-67
2023/06/29 01:28:07;;;;;;;5.00;1.13;;;;;;;14.10;100.00;100839.34;5031133;28;20293;-67
2023/06/29 01:30:39;;;;;;;3.20;1.13;;;;;;;14.31;100.00;100845.31;5031938;28;20059;-67
2023/06/29 01:33:07;;;;;;;2.75;1.00;;;;;;;14.30;100.00;100827.78;5034350;28;20052;-67
2023/06/29 01:35:34;;;;;;;4.32;1.30;;;;;;;14.35;100.00;100842.41;5033575;28;20475;-67
2023/06/29 01:38:12;;;;;;;5.35;1.60;;;;;;;14.09;100.00;100841.09;5049266;28;20138;-67
2023/06/29 01:40:43;;;;;;;4.03;1.42;;;;;;;13.90;100.00;100843.84;5023979;28;20497;-67
2023/06/29 01:43:10;;;;;;;4.00;1.40;;;;;;;13.85;100.00;100835.31;5026629;28;20045;-67
2023/06/29 01:45:38;;;;;;;3.47;1.20;;;;;;;13.86;100.00;100826.47;4980462;28;1327472;-67
2023/06/29 01:48:06;;;;;;;4.35;1.42;;;;;;;14.03;100.00;100839.66;5030002;28;20267;-67
2023/06/29 01:50:33;;;;;;;4.78;1.30;;;;;;;13.95;100.00;100823.41;5040551;28;20100;-66
2023/06/29 01:53:00;;;;;;;3.90;1.10;;;;;;;14.14;100.00;100833.00;5040687;28;20370;-68
2023/06/29 01:55:26;;;;;;;3.35;1.00;;;;;;;14.11;100.00;100830.50;5029533;28;20132;-67
2023/06/29 01:57:53;;;;;;;1.75;0.80;;;;;;;14.23;100.00;100836.00;5031526;28;20119;-67
2023/06/29 02:00:20;;;;;;;2.67;1.23;;;;;;;14.26;100.00;100836.78;5038420;28;20132;-67
2023/06/29 02:02:47;;;;;;;2.28;1.00;;;;;;;14.23;100.00;100837.78;5042534;28;20058;-67
2023/06/29 02:05:14;;;;;;;3.20;1.10;;;;;;;14.18;100.00;100840.66;5029356;28;20042;-67
2023/06/29 02:07:41;;;;;;;2.92;1.15;;;;;;;14.04;100.00;100833.47;5041510;28;20144;-67
2023/06/29 02:10:08;;;;;;;3.58;1.23;;;;;;;13.86;100.00;100821.22;5036185;28;20132;-67
2023/06/29 02:12:39;;;;;;;3.72;1.13;;;;;;;13.96;100.00;100832.97;5039392;28;20141;-67
2023/06/29 02:15:06;;;;;;;4.03;1.55;;;;;;;13.90;100.00;100832.44;5022434;28;20052;-67
2023/06/29 02:17:33;;;;;;;3.60;1.20;;;;;;;13.77;100.00;100826.94;5051031;28;20545;-67
2023/06/29 02:20:00;;;;;;;5.85;1.40;;;;;;;13.93;100.00;100843.66;5034952;28;20049;-67
2023/06/29 02:22:26;;;;;;;7.90;1.40;;;;;;;14.05;100.00;100843.03;5040845;28;20067;-67
2023/06/29 02:24:53;;;;;;;4.00;1.20;;;;;;;13.90;100.00;100830.69;5032095;28;20089;-67
2023/06/29 02:27:20;;;;;;;3.55;1.10;;;;;;;13.86;100.00;100837.88;5030516;28;20083;-67
2023/06/29 02:29:46;;;;;;;3.47;1.23;;;;;;;13.83;100.00;100834.53;5037028;28;20755;-68
2023/06/29 02:32:13;;;;;;;4.80;1.15;;;;;;;13.78;100.00;100836.53;5042800;28;20144;-68
2023/06/29 02:34:40;;;;;;;2.22;1.05;;;;;;;13.66;100.00;100838.00;5035725;28;20121;-67
2023/06/29 02:37:06;;;;;;;1.55;0.90;;;;;;;13.57;100.00;100835.81;5032939;28;20053;-67
2023/06/29 02:39:33;;;;;;;2.33;0.90;;;;;;;13.61;100.00;100846.09;5034308;28;20063;-67
2023/06/29 02:42:00;;;;;;;2.28;1.02;;;;;;;13.59;100.00;100850.59;5039828;28;20046;-65
2023/06/29 02:44:27;;;;;;;2.92;1.10;;;;;;;13.57;100.00;100844.53;5037467;28;20042;-67
2023/06/29 02:46:53;;;;;;;4.60;1.42;;;;;;;13.52;100.00;100837.81;5039510;28;20422;-67
2023/06/29 02:49:20;;;;;;;3.40;1.10;;;;;;;13.40;100.00;100847.13;5034554;28;20415;-67
2023/06/29 02:51:47;;;;;;;4.03;1.10;;;;;;;13.30;100.00;100846.69;5018550;28;20075;-66
2023/06/29 02:54:13;;;;;;;5.47;1.50;;;;;;;13.33;100.00;100857.09;5028004;28;20042;-67
2023/06/29 02:56:40;;;;;;;1.95;1.00;;;;;;;13.34;100.00;100845.66;5027877;28;20049;-68
2023/06/29 02:59:07;;;;;;;2.88;1.10;;;;;;;13.45;100.00;100853.03;5025769;28;20060;-67
2023/06/29 03:01:33;;;;;;;7.05;1.27;;;;;;;13.27;100.00;100849.47;5045063;28;20060;-67
2023/06/29 03:04:00;;;;;;;6.43;1.40;;;;;;;13.03;100.00;100847.06;5031120;28;20534;-67
2023/06/29 03:06:27;;;;;;;4.40;1.17;;;;;;;13.13;100.00;100855.34;5035992;28;20080;-67
2023/06/29 03:08:53;;;;;;;4.72;1.17;;;;;;;12.97;100.00;100844.69;5016787;28;20057;-67
2023/06/29 03:11:20;;;;;;;5.00;1.42;;;;;;;13.04;100.00;100851.38;5026684;28;20049;-67
2023/06/29 03:13:49;;;;;;;3.65;1.10;;;;;;;13.03;100.00;100854.94;5015926;28;20149;-67
2023/06/29 03:16:17;;;;;;;3.40;1.20;;;;;;;12.98;100.00;100845.53;5026881;28;20057;-67
2023/06/29 03:18:44;;;;;;;3.20;1.20;;;;;;;12.88;100.00;100843.34;5012829;28;20099;-67
2023/06/29 03:21:10;;;;;;;7.97;1.10;;;;;;;12.86;100.00;100846.97;5028006;28;20050;-67
2023/06/29 03:23:44;;;;;;;5.03;1.45;;;;;;;12.35;100.00;100839.53;5029203;28;20440;-67
2023/06/29 03:26:11;;;;;;;5.05;1.35;;;;;;;12.39;100.00;100842.06;5028850;28;20491;-67
2023/06/29 03:28:38;;;;;;;7.13;1.38;;;;;;;12.37;100.00;100843.91;5021328;28;20049;-67
2023/06/29 03:31:05;;;;;;;6.15;2.00;;;;;;;12.43;100.00;100844.47;5021175;28;20053;-67
2023/06/29 03:33:31;;;;;;;4.78;1.52;;;;;;;12.56;100.00;100838.69;5024062;28;20511;-67
2023/06/29 03:35:58;;;;;;;3.45;1.25;;;;;;;12.77;100.00;100847.41;5009692;28;20053;-68
2023/06/29 03:38:25;;;;;;;3.72;1.20;;;;;;;12.94;100.00;100841.38;5022345;28;20057;-67
2023/06/29 03:40:52;;;;;;;3.65;1.10;;;;;;;12.89;100.00;100841.56;5026866;28;20049;-67
2023/06/29 03:43:18;;;;;;;4.60;1.35;;;;;;;12.96;100.00;100850.91;5010515;28;20136;-68
2023/06/29 03:45:45;;;;;;;3.60;1.20;;;;;;;12.93;100.00;100848.41;5023996;28;20049;-67
2023/06/29 03:48:12;;;;;;;3.08;1.08;;;;;;;12.84;100.00;100840.94;5021049;28;20050;-67
2023/06/29 03:50:39;;;;;;;5.68;1.63;;;;;;;12.51;100.00;100842.34;5012562;28;20050;-67
2023/06/29 03:53:06;;;;;;;4.03;1.20;;;;;;;12.36;100.00;100843.06;5013139;28;20057;-67
2023/06/29 03:55:33;;;;;;;4.95;1.27;;;;;;;12.51;100.00;100849.38;5030001;28;20064;-67
2023/06/29 03:57:59;;;;;;;5.38;1.25;;;;;;;12.45;100.00;100842.66;5029413;28;20467;-67
2023/06/29 04:00:26;;;;;;;5.25;1.80;;;;;;;12.18;100.00;100842.03;5029379;28;20408;-67
2023/06/29 04:02:53;;;;;;;5.38;1.65;;;;;;;11.92;100.00;100848.41;5029489;28;20136;-67
2023/06/29 04:05:20;;;;;;;3.38;1.20;;;;;;;11.96;100.00;100837.69;5017477;28;20069;-67
2023/06/29 04:07:46;;;;;;;6.43;1.85;;;;;;;11.90;100.00;100827.47;5022074;28;20148;-67
2023/06/29 04:10:13;;;;;;;3.15;1.10;;;;;;;12.27;100.00;100840.78;5023146;28;20060;-67
2023/06/29 04:12:40;;;;;;;8.27;1.83;;;;;;;12.51;100.00;100842.34;5029000;28;20053;-68
2023/06/29 04:15:07;;;;;;;5.95;1.42;;;;;;;12.88;100.00;100856.47;5023388;28;20124;-68
2023/06/29 04:17:34;;;;;;;4.88;1.20;;;;;;;13.52;100.00;100845.69;5017525;28;20054;-68
2023/06/29 04:20:03;;;;;;;2.78;0.90;;;;;;;14.08;100.00;100844.69;5024912;28;20065;-68
2023/06/29 04:22:29;;;;;;;5.40;1.33;;;;;;;14.31;100.00;100843.50;5026901;28;20049;-68
2023/06/29 04:24:56;;;;;;;5.13;1.60;;;;;;;14.76;100.00;100847.31;5022440;28;20049;-68
2023/06/29 04:27:23;;;;;;;8.30;1.60;;;;;;;14.76;100.00;100830.66;5010560;28;20060;-68
2023/06/29 04:29:49;;;;;;;5.53;1.20;;;;;;;15.08;100.00;100860.56;5020812;28;20049;-67
2023/06/29 04:32:16;;;;;;;5.00;1.67;;;;;;;15.25;100.00;100861.44;5024773;28;20048;-67
2023/06/29 04:34:44;;;;;;;5.63;1.20;;;;;;;15.53;100.00;100860.75;5030271;28;20049;-67
2023/06/29 04:37:10;;;;;;;4.53;1.10;;;;;;;15.79;100.00;100856.63;5027003;28;20050;-67
2023/06/29 04:39:37;;;;;;;5.78;1.48;;;;;;;16.02;100.00;100855.28;5021455;28;20049;-67
2023/06/29 04:42:05;;;;;;;7.93;1.60;;;;;;;16.35;100.00;100867.47;5030487;28;20046;-67
2023/06/29 04:44:32;;;;;;;5.00;1.13;;;;;;;16.98;100.00;100863.66;5030110;28;20548;-68
2023/06/29 04:47:00;;;;;;;7.00;1.63;;;;;;;16.60;100.00;100868.63;5030581;28;20637;-68
2023/06/29 04:49:37;;;;;;;4.97;1.20;;;;;;;16.16;100.00;100854.50;5030609;28;20049;-68
2023/06/29 04:52:04;;;;;;;5.38;1.45;;;;;;;15.27;100.00;100857.75;5017634;28;20707;-68
2023/06/29 04:54:32;;;;;;;3.40;1.10;;;;;;;15.59;100.00;100844.56;5028456;28;20052;-67
2023/06/29 04:56:59;;;;;;;4.05;1.20;;;;;;;16.29;100.00;100854.63;5032316;28;20049;-67
2023/06/29 04:59:28;;;;;;;6.03;1.20;;;;;;;15.59;100.00;100855.09;5031060;28;20468;-67
2023/06/29 05:01:55;;;;;;;4.45;1.10;;;;;;;14.70;100.00;100847.66;5019209;28;20435;-68
2023/06/29 05:04:22;;;;;;;2.70;1.00;;;;;;;14.30;100.00;100844.44;5028073;28;20689;-67
2023/06/29 05:06:49;;;;;;;4.00;1.20;;;;;;;14.12;100.00;100837.47;5012095;28;20484;-68
2023/06/29 05:09:15;;;;;;;4.88;1.45;;;;;;;14.38;100.00;100847.53;5017362;28;20123;-68
2023/06/29 05:11:42;;;;;;;5.32;1.20;;;;;;;14.65;100.00;100838.31;5027178;28;20092;-67
2023/06/29 05:14:09;;;;;;;3.67;1.20;;;;;;;14.52;100.00;100822.22;5014540;28;20455;-68
2023/06/29 05:16:36;;;;;;;4.70;1.45;;;;;;;14.71;100.00;100832.69;5015729;28;20355;-68
2023/06/29 05:19:04;;;;;;;5.05;1.35;;;;;;;14.49;100.00;100840.88;5023948;28;20085;-68
2023/06/29 05:21:31;;;;;;;4.43;1.33;;;;;;;14.60;100.00;100828.84;5017271;28;20546;-68
2023/06/29 05:23:57;;;;;;;5.43;1.33;;;;;;;15.62;100.00;100839.09;5030031;28;20051;-68
2023/06/29 05:26:24;;;;;;;2.70;1.10;;;;;;;16.16;100.00;100838.66;5012088;28;20495;-67
2023/06/29 05:28:51;;;;;;;3.55;1.10;;;;;;;16.50;100.00;100831.31;5031183;28;20041;-69
2023/06/29 05:31:30;;;;;;;8.48;1.50;;;;;;;16.65;100.00;100835.69;5031451;28;20137;-67
2023/06/29 05:33:57;;;;;;;4.82;1.10;;;;;;;16.91;100.00;100812.09;5030701;28;20045;-67
2023/06/29 05:36:24;;;;;;;6.03;1.38;;;;;;;17.25;100.00;100834.59;5026021;28;20535;-67
2023/06/29 05:38:51;;;;;;;5.65;1.50;;;;;;;17.50;100.00;100833.03;5030763;28;20049;-68
2023/06/29 05:41:18;;;;;;;8.07;1.20;;;;;;;17.76;100.00;100847.22;5022664;28;20062;-68
2023/06/29 05:43:45;;;;;;;4.82;1.50;;;;;;;18.17;100.00;100827.72;5016901;28;20083;-68
2023/06/29 05:46:11;;;;;;;4.47;1.30;;;;;;;18.15;100.00;100837.56;5019908;28;20057;-67
2023/06/29 05:48:38;;;;;;;4.70;1.10;;;;;;;18.54;100.00;100838.44;5014329;28;20136;-67
2023/06/29 05:51:05;;;;;;;4.82;1.23;;;;;;;18.71;100.00;100831.94;5028859;28;20049;-68
2023/06/29 05:53:32;;;;;;;4.53;1.15;;;;;;;19.15;100.00;100840.38;5024924;28;20088;-68
2023/06/29 05:55:59;;;;;;;3.40;1.00;;;;;;;19.30;100.00;100836.63;5021491;28;20486;-68
2023/06/29 05:58:26;;;;;;;3.83;0.93;;;;;;;19.62;100.00;100845.81;5025246;28;20455;-68
2023/06/29 06:00:52;;;;;;;7.03;1.10;;;;;;;19.42;100.00;100831.38;5023637;28;20130;-68
2023/06/29 06:03:20;;;;;;;4.65;1.30;;;;;;;19.82;100.00;100833.78;5016516;28;20077;-67
2023/06/29 06:05:47;;;;;;;4.47;1.20;;;;;;;19.86;100.00;100840.53;5018380;28;20103;-68
2023/06/29 06:08:14;;;;;;;3.40;0.75;;;;;;;20.00;100.00;100845.66;5015226;28;20046;-68
2023/06/29 06:10:41;;;;;;;3.83;1.00;;;;;;;19.86;100.00;100838.72;5014271;28;20104;-68
2023/06/29 06:13:09;;;;;;;2.17;0.70;;;;;;;20.26;100.00;100835.69;5020399;28;20573;-67
2023/06/29 06:15:36;;;;;;;4.95;1.00;;;;;;;20.17;100.00;100833.75;5019186;28;20540;-67
2023/06/29 06:18:02;;;;;;;2.80;0.90;;;;;;;20.65;100.00;100830.09;5027893;28;20053;-67
2023/06/29 06:20:29;;;;;;;7.32;1.50;;;;;;;20.82;100.00;100842.06;5027920;28;20045;-67
2023/06/29 06:22:56;;;;;;;5.25;1.00;;;;;;;20.64;100.00;100845.19;5022633;28;20073;-67
2023/06/29 06:25:23;;;;;;;6.10;1.08;;;;;;;20.08;100.00;100840.63;5019969;28;20037;-67
2023/06/29 06:27:50;;;;;;;3.67;0.85;;;;;;;20.68;100.00;100843.13;5019135;28;20468;-67
2023/06/29 06:30:16;;;;;;;3.22;0.80;;;;;;;20.92;100.00;100848.34;5028647;28;20140;-67
2023/06/29 06:32:44;;;;;;;3.15;0.95;;;;;;;21.02;100.00;100851.97;5017560;28;20056;-67
2023/06/29 06:35:12;;;;;;;3.08;0.90;;;;;;;21.32;100.00;100846.94;5021595;28;20406;-67
2023/06/29 06:37:39;;;;;;;6.50;1.33;;;;;;;20.56;100.00;100830.78;5014367;28;20136;-67
2023/06/29 06:40:09;;;;;;;3.70;1.00;;;;;;;20.58;100.00;100842.16;5019160;28;20403;-67
2023/06/29 06:42:36;;;;;;;2.85;0.85;;;;;;;20.92;100.00;100836.88;5020720;28;20049;-67
2023/06/29 06:45:04;;;;;;;8.73;1.35;;;;;;;20.23;100.00;100841.25;5018447;28;20128;-67
2023/06/29 06:47:33;;;;;;;2.35;0.77;;;;;;;21.30;100.00;100848.88;5023418;28;20053;-67
2023/06/29 06:50:00;;;;;;;4.82;1.02;;;;;;;21.24;100.00;100852.91;5022370;28;20411;-67
2023/06/29 06:52:27;;;;;;;4.55;1.13;;;;;;;21.97;100.00;100837.16;5028965;28;20092;-67
2023/06/29 06:54:56;;;;;;;3.65;0.90;;;;;;;22.31;100.00;100856.53;5016621;28;20661;-68
2023/06/29 06:57:22;;;;;;;3.50;1.00;;;;;;;21.77;100.00;100845.03;5017737;28;20129;-68
2023/06/29 06:59:49;;;;;;;4.22;0.90;;;;;;;22.16;100.00;100847.97;5028160;28;20053;-68
2023/06/29 07:02:16;;;;;;;7.13;1.27;;;;;;;21.97;100.00;100851.38;5028542;28;20049;-68
2023/06/29 07:04:43;;;;;;;4.82;0.90;;;;;;;22.17;100.00;100844.34;5027566;28;20798;-68
2023/06/29 07:07:10;;;;;;;5.10;0.88;;;;;;;22.42;100.00;100844.94;5025154;28;20136;-68
2023/06/29 07:09:37;;;;;;;2.80;0.75;;;;;;;22.80;100.00;100848.75;5025835;28;20053;-68
2023/06/29 07:12:04;;;;;;;2.70;0.90;;;;;;;23.15;100.00;100852.00;5023935;28;20542;-68
2023/06/29 07:14:31;;;;;;;5.28;1.10;;;;;;;22.75;100.00;100846.50;5018837;28;20133;-68
2023/06/29 07:16:58;;;;;;;1.80;0.63;;;;;;;22.10;100.00;100845.00;5021699;28;20080;-68
2023/06/29 07:19:26;;;;;;;4.53;0.90;;;;;;;22.75;100.00;100846.50;5028420;28;20050;-68
2023/06/29 07:21:56;;;;;;;4.93;0.98;;;;;;;22.90;100.00;100848.81;5026809;28;20470;-68
2023/06/29 07:24:25;;;;;;;5.22;1.10;;;;;;;23.12;100.00;100850.44;5018137;28;20057;-68
2023/06/29 07:26:52;;;;;;;3.83;0.90;;;;;;;23.49;100.00;100839.97;5027133;28;20120;-73
2023/06/29 07:29:19;;;;;;;4.53;1.17;;;;;;;23.45;100.00;100846.56;5019015;28;20046;-72
2023/06/29 07:31:46;;;;;;;4.75;1.00;;;;;;;23.56;100.00;100842.09;5024160;28;20100;-72
2023/06/29 07:34:12;;;;;;;5.10;0.70;;;;;;;23.39;100.00;100835.59;5027483;28;20495;-72
2023/06/29 07:36:39;;;;;;;2.53;0.75;;;;;;;23.67;100.00;100837.47;5029999;28;20137;-72
2023/06/29 07:39:06;;;;;;;2.90;0.70;;;;;;;24.04;100.00;100830.56;5021287;28;20492;-72
2023/06/29 07:41:33;;;;;;;4.50;1.00;;;;;;;23.31;96.49;100846.97;5018456;28;20129;-72
2023/06/29 07:44:00;;;;;;;3.75;0.95;;;;;;;23.33;100.00;100838.84;5023993;28;20100;-72
2023/06/29 07:46:27;;;;;;;5.10;0.90;;;;;;;23.09;100.00;100834.72;5018469;28;20407;-72
2023/06/29 07:48:54;;;;;;;5.40;1.00;;;;;;;22.81;100.00;100834.44;5025238;28;20121;-72
2023/06/29 07:51:22;;;;;;;3.08;0.70;;;;;;;23.54;100.00;100836.88;5019284;28;20050;-71
2023/06/29 07:53:50;;;;;;;3.88;0.80;;;;;;;23.69;96.96;100824.81;5028509;28;20053;-72
2023/06/29 07:56:17;;;;;;;1.40;0.57;;;;;;;23.72;100.00;100817.47;5026261;28;20476;-71
2023/06/29 07:58:45;;;;;;;5.88;1.10;;;;;;;23.72;92.97;100814.81;5028206;28;20053;-72
2023/06/29 08:01:11;;;;;;;1.83;0.70;;;;;;;23.99;100.00;100825.66;5028310;28;20140;-72
2023/06/29 08:03:39;;;;;;;3.53;0.80;;;;;;;23.64;96.42;100828.88;5030544;28;20053;-71
2023/06/29 08:06:26;;;;;;;1.85;0.82;;;;;;;23.97;100.00;100819.59;5029494;28;20359;-72
2023/06/29 08:08:56;;;;;;;2.28;0.70;;;;;;;24.21;90.27;100812.94;5031669;28;20060;-71
2023/06/29 08:11:23;;;;;;;4.68;0.93;;;;;;;23.32;100.00;100821.97;5031849;28;20060;-72
2023/06/29 08:13:50;;;;;;;4.57;1.10;;;;;;;23.38;92.79;100813.38;5031918;28;20708;-72
2023/06/29 08:16:16;;;;;;;3.25;0.95;;;;;;;24.22;91.88;100818.16;5031495;28;20530;-72
2023/06/29 08:18:43;;;;;;;3.58;0.80;;;;;;;25.48;88.67;100806.97;5030369;28;20060;-71
2023/06/29 08:21:10;;;;;;;3.67;0.85;;;;;;;25.31;90.32;100812.19;5026645;28;20072;-71
2023/06/29 08:23:37;;;;;;;4.88;1.08;;;;;;;25.85;72.79;100801.47;5032941;28;20111;-72
2023/06/29 08:26:04;;;;;;;4.28;1.00;;;;;;;25.14;69.30;100819.19;5025988;28;20137;-71
2023/06/29 08:28:31;;;;;;;6.00;1.33;;;;;;;23.63;80.18;100814.66;5031128;28;20049;-72
2023/06/29 08:30:57;;;;;;;3.92;0.70;;;;;;;24.41;88.53;100811.03;5019932;28;20153;-72
2023/06/29 08:33:24;;;;;;;5.07;1.00;;;;;;;23.91;83.70;100814.81;5029786;28;20041;-72
2023/06/29 08:35:51;;;;;;;5.35;0.90;;;;;;;24.58;85.22;100794.25;5023842;28;20049;-71
2023/06/29 08:38:18;;;;;;;3.72;0.90;;;;;;;24.86;80.04;100812.16;5032657;28;20068;-71
2023/06/29 08:40:47;;;;;;;3.15;0.90;;;;;;;24.31;94.98;100823.59;5025487;28;20065;-71
2023/06/29 08:43:15;;;;;;;4.57;0.90;;;;;;;23.68;95.99;100811.56;5028329;28;20053;-72
2023/06/29 08:45:42;;;;;;;5.30;0.95;;;;;;;23.62;94.53;100812.13;5019911;28;20049;-71
2023/06/29 08:48:11;;;;;;;4.68;1.08;;;;;;;23.47;96.46;100807.19;5031326;28;20517;-71
2023/06/29 08:50:43;;;;;;;4.20;0.80;;;;;;;22.97;100.00;100809.91;5030521;28;20387;-71
2023/06/29 08:53:12;;;;;;;3.88;0.90;;;;;;;22.34;100.00;100810.06;5030099;28;20041;-71
2023/06/29 08:55:41;;;;;;;2.80;0.70;;;;;;;22.16;100.00;100810.63;5021661;28;20049;-70
2023/06/29 08:58:08;;;;;;;5.15;1.00;;;;;;;21.71;100.00;100802.91;5030164;28;20092;-71
2023/06/29 09:00:37;;;;;;;3.22;0.90;;;;;;;21.89;100.00;100823.66;5023042;28;20129;-70
2023/06/29 09:03:04;;;;;;;4.90;0.90;;;;;;;21.83;100.00;100810.84;5030907;28;20117;-70
2023/06/29 09:05:32;;;;;;;4.25;1.00;;;;;;;21.68;100.00;100805.81;5027576;28;20092;-71
2023/06/29 09:07:59;;;;;;;2.58;0.98;;;;;;;21.41;100.00;100823.09;5033794;28;20041;-70
2023/06/29 09:10:26;;;;;;;3.45;0.90;;;;;;;20.72;100.00;100818.00;5044151;28;20068;-70
2023/06/29 09:12:54;;;;;;;3.85;1.10;;;;;;;20.58;100.00;100810.25;5026754;28;20087;-70
2023/06/29 09:15:25;;;;;;;3.72;1.05;;;;;;;21.48;100.00;100820.81;5020614;28;20579;-71
2023/06/29 09:17:55;;;;;;;3.95;1.00;;;;;;;22.50;100.00;100802.41;5012014;28;20057;-71
2023/06/29 09:20:25;;;;;;;4.55;1.10;;;;;;;22.82;95.08;100798.75;5029602;28;20552;-70
2023/06/29 09:22:52;;;;;;;5.97;1.25;;;;;;;22.92;100.00;100801.47;5032719;28;20053;-70
2023/06/29 09:25:19;;;;;;;6.32;1.40;;;;;;;22.54;100.00;100793.19;5029495;28;20507;-70
2023/06/29 09:28:03;;;;;;;4.60;1.25;;;;;;;22.86;100.00;100813.53;5020898;28;20060;-70
2023/06/29 09:30:35;;;;;;;6.05;1.20;;;;;;;22.22;100.00;100803.09;5020450;28;20452;-70
2023/06/29 09:33:12;;;;;;;6.43;1.07;;;;;;;22.64;100.00;100798.56;5020738;28;20085;-70
2023/06/29 09:35:47;;;;;;;5.95;1.40;;;;;;;22.34;100.00;100810.06;5022146;28;20282;-70
2023/06/29 09:38:16;;;;;;;3.45;1.13;;;;;;;21.36;100.00;100801.31;5031450;28;20521;-70
2023/06/29 09:40:50;;;;;;;4.40;1.25;;;;;;;21.04;100.00;100811.94;5025393;28;20056;-70
2023/06/29 09:43:18;;;;;;;8.55;1.50;;;;;;;21.41;100.00;100803.59;5016153;28;20062;-70
2023/06/29 09:45:45;;;;;;;9.95;1.48;;;;;;;21.38;100.00;100804.69;5019988;28;20529;-70
2023/06/29 09:48:13;;;;;;;5.70;1.30;;;;;;;21.42;100.00;100806.16;5015950;28;20045;-70
2023/06/29 09:50:51;;;;;;;2.88;1.02;;;;;;;21.34;100.00;100795.28;5012795;28;20523;-71
2023/06/29 09:53:30;;;;;;;3.88;1.08;;;;;;;20.91;100.00;100808.53;5024326;28;20141;-70
2023/06/29 09:55:59;;;;;;;5.10;1.30;;;;;;;21.50;100.00;100800.22;5030302;28;20399;-70
2023/06/29 09:58:28;;;;;;;4.57;1.13;;;;;;;21.66;100.00;100805.09;5025422;28;20111;-70
2023/06/29 10:00:58;;;;;;;5.72;1.10;;;;;;;21.34;100.00;100800.59;5029809;28;20045;-71
2023/06/29 10:03:31;;;;;;;4.82;1.38;;;;;;;21.78;100.00;100800.59;5012128;28;20459;-70
2023/06/29 10:06:12;;;;;;;5.63;1.58;;;;;;;22.33;100.00;100798.56;5025347;28;20132;-70
2023/06/29 10:08:41;;;;;;;5.38;1.30;;;;;;;22.22;100.00;100795.09;5023398;28;20065;-70
2023/06/29 10:11:08;;;;;;;4.40;0.88;;;;;;;21.98;100.00;100789.06;5026068;28;20128;-70
2023/06/29 10:13:43;;;;;;;7.07;1.33;;;;;;;21.99;100.00;100792.56;5030660;28;20053;-70
2023/06/29 10:16:11;;;;;;;5.07;1.25;;;;;;;21.77;100.00;100783.72;5017567;28;20041;-71
2023/06/29 10:18:42;;;;;;;6.93;1.55;;;;;;;21.32;100.00;100793.69;5034913;28;20137;-70
2023/06/29 10:21:08;;;;;;;8.05;1.30;;;;;;;21.07;100.00;100800.16;5030705;28;20060;-70
2023/06/29 10:23:38;;;;;;;8.45;1.58;;;;;;;21.09;100.00;100800.88;5021413;28;20059;-70
2023/06/29 10:26:05;;;;;;;6.35;1.25;;;;;;;20.89;100.00;100797.19;5015206;28;20046;-70
2023/06/29 10:28:34;;;;;;;6.53;1.20;;;;;;;21.01;100.00;100798.84;5028975;28;20049;-70
2023/06/29 10:31:01;;;;;;;3.65;1.38;;;;;;;21.64;100.00;100785.75;5029659;28;20056;-70
2023/06/29 10:33:28;;;;;;;5.90;1.40;;;;;;;21.58;100.00;100788.91;5015923;28;20093;-70
2023/06/29 10:35:55;;;;;;;6.57;1.45;;;;;;;21.77;100.00;100796.22;5029350;28;20606;-70
2023/06/29 10:38:27;;;;;;;8.75;1.42;;;;;;;21.51;100.00;100801.03;5025316;28;20053;-70
2023/06/29 10:40:54;;;;;;;6.40;1.20;;;;;;;21.34;100.00;100787.28;5017793;28;20053;-70
2023/06/29 10:43:20;;;;;;;4.22;1.13;;;;;;;20.76;100.00;100794.66;5012553;28;20160;-70
2023/06/29 10:45:47;;;;;;;7.68;1.67;;;;;;;20.48;100.00;100791.47;5026827;28;20052;-71
2023/06/29 10:48:17;;;;;;;7.47;1.45;;;;;;;21.01;100.00;100805.00;5027108;28;20160;-70
2023/06/29 10:51:06;;;;;;;6.18;1.30;;;;;;;21.11;100.00;100794.50;5010887;28;20112;-71
2023/06/29 10:53:34;;;;;;;5.85;1.50;;;;;;;21.56;100.00;100794.34;5010445;28;20140;-71
2023/06/29 10:56:01;;;;;;;4.75;1.17;;;;;;;21.31;100.00;100784.03;5029567;28;20041;-70
2023/06/29 10:58:36;;;;;;;5.63;1.10;;;;;;;21.53;100.00;100783.09;5022152;28;20566;-70
2023/06/29 11:01:03;;;;;;;4.47;1.35;;;;;;;20.97;100.00;100794.75;5030181;28;20132;-70
2023/06/29 11:03:30;;;;;;;4.53;1.20;;;;;;;20.75;100.00;100784.97;5030231;28;20052;-70
2023/06/29 11:05:57;;;;;;;7.05;1.20;;;;;;;20.83;100.00;100790.53;5018530;28;20080;-70
2023/06/29 11:08:24;;;;;;;5.97;1.40;;;;;;;20.49;100.00;100780.72;5020215;28;20219;-70
2023/06/29 11:10:52;;;;;;;5.68;1.50;;;;;;;20.39;100.00;100771.78;5026747;28;20073;-70
2023/06/29 11:13:19;;;;;;;5.10;1.38;;;;;;;21.26;100.00;100779.06;5026795;28;20049;-70
2023/06/29 11:15:54;;;;;;;2.97;1.00;;;;;;;21.77;100.00;100773.06;5014967;28;20065;-70
2023/06/29 11:18:21;;;;;;;10.93;1.42;;;;;;;21.24;100.00;100773.84;5014376;28;20406;-70
2023/06/29 11:20:48;;;;;;;4.15;1.23;;;;;;;21.45;100.00;100770.41;5019474;28;20415;-70